createdAt,value
2017-12-31T00:00:18.155Z,7.90
2017-12-31T00:02:45.683Z,7.90
2017-12-31T00:05:13.983Z,7.90
2017-12-31T00:07:42.422Z,7.90
2017-12-31T00:10:09.990Z,7.90
2017-12-31T00:12:37.569Z,7.90
2017-12-31T00:15:05.234Z,7.90
2017-12-31T00:17:32.764Z,7.90
2017-12-31T00:20:01.065Z,7.90
2017-12-31T00:22:28.758Z,7.90
2017-12-31T00:24:56.414Z,7.90
2017-12-31T00:27:23.950Z,7.90
2017-12-31T00:29:52.298Z,7.80
2017-12-31T00:32:19.827Z,7.80
2017-12-31T00:34:48.133Z,7.80
2017-12-31T00:37:15.722Z,7.80
2017-12-31T00:39:43.279Z,7.80
2017-12-31T00:42:10.810Z,7.80
2017-12-31T00:44:38.374Z,7.70
2017-12-31T00:47:06.677Z,7.60
2017-12-31T00:49:35.004Z,7.50
2017-12-31T00:52:02.789Z,7.50
2017-12-31T00:54:30.343Z,7.50
2017-12-31T00:56:57.874Z,7.40
2017-12-31T00:59:25.443Z,7.40
2017-12-31T01:01:54.482Z,7.40
2017-12-31T01:04:22.010Z,7.40
2017-12-31T01:06:51.293Z,7.40
2017-12-31T01:09:18.818Z,7.40
2017-12-31T01:11:47.127Z,7.40
2017-12-31T01:14:14.709Z,7.40
2017-12-31T01:16:42.483Z,7.40
2017-12-31T01:19:10.006Z,7.30
2017-12-31T01:21:39.231Z,7.20
2017-12-31T01:24:07.550Z,7.10
2017-12-31T01:26:35.091Z,7.10
2017-12-31T01:29:03.445Z,7.00
2017-12-31T01:31:31.105Z,7.00
2017-12-31T01:33:58.635Z,6.90
2017-12-31T01:36:27.168Z,6.70
2017-12-31T01:38:54.705Z,6.70
2017-12-31T01:41:22.246Z,6.70
2017-12-31T01:43:49.994Z,6.70
2017-12-31T01:46:17.526Z,6.60
2017-12-31T01:49:03.238Z,6.60
2017-12-31T01:51:30.769Z,6.60
2017-12-31T01:53:58.305Z,6.50
2017-12-31T01:56:26.070Z,6.50
2017-12-31T01:58:53.602Z,6.40
2017-12-31T02:01:21.900Z,6.40
2017-12-31T02:03:49.475Z,6.40
2017-12-31T02:06:17.003Z,6.40
2017-12-31T02:08:44.546Z,6.40
2017-12-31T02:11:12.127Z,6.30
2017-12-31T02:13:39.662Z,6.30
2017-12-31T02:16:07.192Z,6.30
2017-12-31T02:18:35.008Z,6.20
2017-12-31T02:21:02.550Z,6.20
2017-12-31T02:23:30.845Z,6.00
2017-12-31T02:25:59.390Z,6.00
2017-12-31T02:28:26.927Z,6.00
2017-12-31T02:30:55.296Z,6.00
2017-12-31T02:33:23.744Z,5.90
2017-12-31T02:35:51.286Z,5.90
2017-12-31T02:38:18.819Z,5.90
2017-12-31T02:40:46.397Z,5.80
2017-12-31T02:43:14.698Z,5.80
2017-12-31T02:45:42.238Z,5.80
2017-12-31T02:48:09.817Z,5.80
2017-12-31T02:50:37.355Z,5.80
2017-12-31T02:53:04.887Z,5.80
2017-12-31T02:55:32.467Z,5.80
2017-12-31T02:57:59.997Z,5.80
2017-12-31T03:00:28.310Z,5.80
2017-12-31T03:02:56.004Z,5.80
2017-12-31T03:05:23.534Z,5.80
2017-12-31T03:07:51.060Z,5.90
2017-12-31T03:10:18.638Z,5.90
2017-12-31T03:12:46.288Z,5.90
2017-12-31T03:15:13.812Z,5.90
2017-12-31T03:17:41.406Z,5.90
2017-12-31T03:20:09.703Z,5.90
2017-12-31T03:22:37.469Z,5.90
2017-12-31T03:25:05.818Z,5.80
2017-12-31T03:27:33.348Z,5.80
2017-12-31T03:30:00.874Z,5.80
2017-12-31T03:32:28.534Z,5.80
2017-12-31T03:34:56.068Z,5.70
2017-12-31T03:37:23.606Z,5.70
2017-12-31T03:39:51.178Z,5.70
2017-12-31T03:42:19.490Z,5.70
2017-12-31T03:44:47.020Z,5.70
2017-12-31T03:47:14.599Z,5.70
2017-12-31T03:49:42.897Z,5.70
2017-12-31T03:52:11.202Z,5.80
2017-12-31T03:54:39.536Z,5.80
2017-12-31T03:57:07.070Z,5.80
2017-12-31T03:59:34.602Z,5.90
2017-12-31T04:02:02.186Z,5.90
2017-12-31T04:04:29.718Z,5.90
2017-12-31T04:06:57.246Z,5.90
2017-12-31T04:09:24.814Z,6.00
2017-12-31T04:11:53.111Z,6.00
2017-12-31T04:14:20.633Z,6.00
2017-12-31T04:16:48.287Z,6.00
2017-12-31T04:19:15.812Z,6.10
2017-12-31T04:21:44.116Z,6.20
2017-12-31T04:24:11.691Z,6.10
2017-12-31T04:26:39.216Z,6.10
2017-12-31T04:29:06.746Z,6.10
2017-12-31T04:31:34.321Z,6.10
2017-12-31T04:34:01.851Z,6.00
2017-12-31T04:36:30.166Z,6.00
2017-12-31T04:38:57.738Z,6.00
2017-12-31T04:41:25.266Z,6.00
2017-12-31T04:43:52.802Z,6.00
2017-12-31T04:46:20.394Z,6.00
2017-12-31T04:48:47.918Z,5.90
2017-12-31T04:51:15.450Z,5.90
2017-12-31T04:53:44.655Z,5.80
2017-12-31T04:56:12.185Z,5.80
2017-12-31T04:58:39.714Z,5.80
2017-12-31T05:01:08.057Z,5.80
2017-12-31T05:03:35.590Z,5.80
2017-12-31T05:06:03.127Z,5.80
2017-12-31T05:08:30.854Z,5.80
2017-12-31T05:10:58.383Z,5.80
2017-12-31T05:13:25.915Z,5.80
2017-12-31T05:15:53.483Z,5.90
2017-12-31T05:18:21.023Z,5.90
2017-12-31T05:20:48.567Z,5.90
2017-12-31T05:23:16.906Z,5.90
2017-12-31T05:25:44.446Z,5.90
2017-12-31T05:28:12.734Z,5.90
2017-12-31T05:30:41.083Z,5.90
2017-12-31T05:33:08.626Z,5.90
2017-12-31T05:35:36.158Z,5.90
2017-12-31T05:38:04.495Z,5.90
2017-12-31T05:40:32.046Z,5.90
2017-12-31T05:42:59.573Z,6.00
2017-12-31T05:45:27.155Z,6.10
2017-12-31T05:47:54.690Z,6.20
2017-12-31T05:50:22.238Z,6.30
2017-12-31T05:52:49.838Z,6.40
2017-12-31T05:55:17.365Z,6.50
2017-12-31T05:57:44.906Z,6.60
2017-12-31T06:00:12.512Z,6.60
2017-12-31T06:02:40.042Z,6.70
2017-12-31T06:05:07.578Z,6.70
2017-12-31T06:07:35.155Z,6.80
2017-12-31T06:10:02.704Z,6.90
2017-12-31T06:12:30.240Z,6.90
2017-12-31T06:14:58.777Z,6.90
2017-12-31T06:17:26.312Z,6.90
2017-12-31T06:19:54.611Z,7.00
2017-12-31T06:22:22.198Z,6.90
2017-12-31T06:24:49.726Z,7.00
2017-12-31T06:27:18.018Z,7.00
2017-12-31T06:29:46.554Z,7.10
2017-12-31T06:32:14.078Z,7.10
2017-12-31T06:34:42.373Z,7.20
2017-12-31T06:37:10.922Z,7.20
2017-12-31T06:39:38.564Z,7.20
2017-12-31T06:42:06.099Z,7.30
2017-12-31T06:44:33.681Z,7.50
2017-12-31T06:47:02.003Z,7.50
2017-12-31T06:49:29.542Z,7.50
2017-12-31T06:51:58.078Z,7.50
2017-12-31T06:54:25.611Z,7.50
2017-12-31T06:56:53.907Z,7.60
2017-12-31T06:59:24.157Z,7.60
2017-12-31T07:01:51.679Z,7.60
2017-12-31T07:04:19.982Z,7.70
2017-12-31T07:06:48.403Z,7.80
2017-12-31T07:09:15.938Z,7.80
2017-12-31T07:11:43.476Z,7.80
2017-12-31T07:14:11.237Z,7.90
2017-12-31T07:16:38.762Z,7.80
2017-12-31T07:19:07.062Z,7.90
2017-12-31T07:21:35.403Z,8.00
2017-12-31T07:24:02.967Z,8.00
2017-12-31T07:26:30.906Z,8.00
2017-12-31T07:28:58.493Z,8.00
2017-12-31T07:31:26.399Z,8.00
2017-12-31T07:33:53.940Z,8.00
2017-12-31T07:36:21.514Z,8.00
2017-12-31T07:38:49.341Z,7.90
2017-12-31T07:41:16.919Z,7.90
2017-12-31T07:43:44.494Z,7.90
2017-12-31T07:46:12.026Z,7.90
2017-12-31T07:48:39.576Z,7.90
2017-12-31T07:51:07.150Z,7.80
2017-12-31T07:53:34.670Z,7.70
2017-12-31T07:56:02.197Z,7.70
2017-12-31T07:58:29.784Z,7.70
2017-12-31T08:00:57.326Z,7.60
2017-12-31T08:03:24.854Z,7.60
2017-12-31T08:05:52.490Z,7.60
2017-12-31T08:08:20.010Z,7.50
2017-12-31T08:10:48.312Z,7.50
2017-12-31T08:13:16.886Z,7.40
2017-12-31T08:15:44.427Z,7.40
2017-12-31T08:18:11.958Z,7.40
2017-12-31T08:20:39.656Z,7.40
2017-12-31T08:23:07.195Z,7.40
2017-12-31T08:25:35.492Z,7.40
2017-12-31T08:28:03.077Z,7.40
2017-12-31T08:30:30.602Z,7.30
2017-12-31T08:32:58.138Z,7.30
2017-12-31T08:35:25.911Z,7.30
2017-12-31T08:37:53.438Z,7.30
2017-12-31T08:40:21.730Z,7.40
2017-12-31T08:42:50.056Z,7.40
2017-12-31T08:45:17.579Z,7.40
2017-12-31T08:47:45.874Z,7.30
2017-12-31T08:50:14.407Z,7.30
2017-12-31T08:52:41.945Z,7.30
2017-12-31T08:55:09.513Z,7.40
2017-12-31T08:57:37.866Z,7.40
2017-12-31T09:00:05.412Z,7.40
2017-12-31T09:02:32.964Z,7.40
2017-12-31T09:05:00.661Z,7.40
2017-12-31T09:07:28.226Z,7.50
2017-12-31T09:09:55.752Z,7.50
2017-12-31T09:12:24.188Z,7.50
2017-12-31T09:14:51.725Z,7.50
2017-12-31T09:17:19.313Z,7.50
2017-12-31T09:19:46.894Z,7.50
2017-12-31T09:22:14.426Z,7.50
2017-12-31T09:24:42.725Z,7.50
2017-12-31T09:27:11.512Z,7.50
2017-12-31T09:29:39.061Z,7.50
2017-12-31T09:32:06.607Z,7.50
2017-12-31T09:34:34.208Z,7.50
2017-12-31T09:37:01.742Z,7.50
2017-12-31T09:39:29.275Z,7.50
2017-12-31T09:41:57.829Z,7.60
2017-12-31T09:44:25.363Z,7.60
2017-12-31T09:46:52.890Z,7.60
2017-12-31T09:49:20.578Z,7.60
2017-12-31T09:51:48.111Z,7.60
2017-12-31T09:54:15.751Z,7.70
2017-12-31T09:56:43.330Z,7.70
2017-12-31T09:59:10.867Z,7.80
2017-12-31T10:01:39.185Z,7.90
2017-12-31T10:04:06.838Z,7.90
2017-12-31T10:06:34.398Z,8.00
2017-12-31T10:09:02.703Z,8.30
2017-12-31T10:11:31.071Z,8.50
2017-12-31T10:13:58.595Z,8.40
2017-12-31T10:16:26.125Z,8.60
2017-12-31T10:18:55.642Z,8.80
2017-12-31T10:21:23.194Z,8.80
2017-12-31T10:23:50.723Z,9.00
2017-12-31T10:26:19.310Z,9.00
2017-12-31T10:28:46.840Z,9.10
2017-12-31T10:31:15.441Z,9.20
2017-12-31T10:33:42.951Z,9.20
2017-12-31T10:36:10.487Z,9.30
2017-12-31T10:38:38.041Z,9.40
2017-12-31T10:41:07.295Z,9.40
2017-12-31T10:43:34.920Z,9.50
2017-12-31T10:46:02.706Z,9.60
2017-12-31T10:48:30.305Z,9.60
2017-12-31T10:50:58.014Z,9.70
2017-12-31T10:53:25.559Z,9.70
2017-12-31T10:55:53.138Z,9.80
2017-12-31T10:58:20.674Z,9.80
2017-12-31T11:00:48.962Z,9.90
2017-12-31T11:03:17.312Z,10.00
2017-12-31T11:05:44.850Z,9.90
2017-12-31T11:08:12.400Z,10.00
2017-12-31T11:10:39.993Z,10.10
2017-12-31T11:13:07.570Z,10.10
2017-12-31T11:15:35.104Z,10.10
2017-12-31T11:18:03.457Z,10.20
2017-12-31T11:20:30.994Z,10.20
2017-12-31T11:22:58.532Z,10.40
2017-12-31T11:25:26.946Z,10.50
2017-12-31T11:27:54.502Z,10.50
2017-12-31T11:30:22.811Z,10.60
2017-12-31T11:32:50.414Z,10.60
2017-12-31T11:35:17.943Z,10.70
2017-12-31T11:37:45.474Z,10.70
2017-12-31T11:40:13.077Z,10.80
2017-12-31T11:42:41.415Z,10.90
2017-12-31T11:45:08.959Z,10.90
2017-12-31T11:47:36.754Z,10.90
2017-12-31T11:50:04.290Z,10.90
2017-12-31T11:52:32.592Z,11.00
2017-12-31T11:55:00.395Z,11.00
2017-12-31T11:57:28.865Z,11.00
2017-12-31T11:59:56.413Z,11.30
2017-12-31T12:02:24.890Z,11.50
2017-12-31T12:04:52.458Z,11.40
2017-12-31T12:07:19.988Z,11.60
2017-12-31T12:09:47.568Z,11.60
2017-12-31T12:12:15.108Z,11.60
2017-12-31T12:14:42.648Z,11.70
2017-12-31T12:17:10.709Z,11.80
2017-12-31T12:19:48.777Z,11.70
2017-12-31T12:22:16.414Z,11.90
2017-12-31T12:24:43.974Z,11.60
2017-12-31T12:27:12.290Z,11.40
2017-12-31T12:29:40.662Z,11.40
2017-12-31T12:32:08.233Z,11.40
2017-12-31T12:34:37.242Z,11.30
2017-12-31T12:37:07.634Z,11.30
2017-12-31T12:39:35.178Z,11.30
2017-12-31T12:42:02.734Z,11.30
2017-12-31T12:44:31.086Z,11.30
2017-12-31T12:46:58.622Z,11.20
2017-12-31T12:49:26.938Z,11.30
2017-12-31T12:51:54.663Z,11.30
2017-12-31T12:54:22.783Z,11.30
2017-12-31T12:56:52.334Z,11.30
2017-12-31T12:59:20.062Z,11.30
2017-12-31T13:01:47.618Z,11.30
2017-12-31T13:04:16.132Z,11.40
2017-12-31T13:06:44.959Z,11.40
2017-12-31T13:09:12.666Z,11.40
2017-12-31T13:11:40.971Z,11.40
2017-12-31T13:14:09.336Z,11.40
2017-12-31T13:16:36.870Z,11.40
2017-12-31T13:19:04.419Z,11.40
2017-12-31T13:21:32.096Z,11.50
2017-12-31T13:23:59.647Z,11.50
2017-12-31T13:26:28.014Z,11.60
2017-12-31T13:28:55.778Z,11.50
2017-12-31T13:31:24.254Z,11.50
2017-12-31T13:33:51.818Z,11.50
2017-12-31T13:36:19.501Z,11.50
2017-12-31T13:38:48.567Z,11.40
2017-12-31T13:41:16.120Z,11.40
2017-12-31T13:43:44.477Z,11.40
2017-12-31T13:46:12.421Z,11.40
2017-12-31T13:48:40.185Z,11.50
2017-12-31T13:51:07.794Z,11.50
2017-12-31T13:53:35.430Z,11.50
2017-12-31T13:56:03.042Z,11.50
2017-12-31T13:58:30.903Z,11.50
2017-12-31T14:00:58.566Z,11.50
2017-12-31T14:03:27.082Z,11.60
2017-12-31T14:05:54.747Z,11.50
2017-12-31T14:08:22.311Z,11.60
2017-12-31T14:10:49.880Z,11.60
2017-12-31T14:13:17.546Z,11.60
2017-12-31T14:15:45.090Z,11.60
2017-12-31T14:18:13.398Z,11.60
2017-12-31T14:20:41.220Z,11.60
2017-12-31T14:23:08.771Z,11.60
2017-12-31T14:25:36.318Z,11.60
2017-12-31T14:28:03.907Z,11.50
2017-12-31T14:30:31.456Z,11.50
2017-12-31T14:32:59.010Z,11.50
2017-12-31T14:35:27.637Z,11.40
2017-12-31T14:37:55.182Z,11.40
2017-12-31T14:40:23.485Z,11.40
2017-12-31T14:42:51.293Z,11.40
2017-12-31T14:45:18.934Z,11.30
2017-12-31T14:47:47.250Z,11.30
2017-12-31T14:50:14.846Z,11.30
2017-12-31T14:52:42.391Z,11.30
2017-12-31T14:55:09.996Z,11.30
2017-12-31T14:57:37.586Z,11.30
2017-12-31T15:00:05.131Z,11.20
2017-12-31T15:02:32.719Z,11.20
2017-12-31T15:05:00.302Z,11.20
2017-12-31T15:07:27.850Z,11.20
2017-12-31T15:09:55.396Z,11.20
2017-12-31T15:12:23.174Z,11.20
2017-12-31T15:14:50.717Z,11.10
2017-12-31T15:17:18.262Z,11.20
2017-12-31T15:19:46.622Z,11.20
2017-12-31T15:22:14.151Z,11.20
2017-12-31T15:24:42.092Z,11.10
2017-12-31T15:27:09.682Z,11.10
2017-12-31T15:29:37.999Z,11.10
2017-12-31T15:32:05.536Z,11.10
2017-12-31T15:34:34.075Z,11.10
2017-12-31T15:37:01.622Z,11.10
2017-12-31T15:39:29.186Z,11.10
2017-12-31T15:41:56.806Z,11.10
2017-12-31T15:44:24.340Z,11.10
2017-12-31T15:46:51.893Z,11.10
2017-12-31T15:49:20.258Z,11.10
2017-12-31T15:51:47.814Z,11.10
2017-12-31T15:54:15.367Z,11.10
2017-12-31T15:56:42.958Z,11.10
2017-12-31T15:59:10.499Z,11.10
2017-12-31T16:01:38.095Z,11.20
2017-12-31T16:04:05.692Z,11.20
2017-12-31T16:06:33.238Z,11.20
2017-12-31T16:09:00.789Z,11.20
2017-12-31T16:11:28.385Z,11.10
2017-12-31T16:13:55.930Z,11.10
2017-12-31T16:16:23.474Z,11.10
2017-12-31T16:18:51.083Z,11.10
2017-12-31T16:21:18.639Z,11.10
2017-12-31T16:23:46.221Z,11.10
2017-12-31T16:26:13.912Z,11.10
2017-12-31T16:28:41.535Z,11.20
2017-12-31T16:31:09.095Z,11.10
2017-12-31T16:33:36.816Z,11.10
2017-12-31T16:36:04.378Z,11.10
2017-12-31T16:38:31.922Z,11.10
2017-12-31T16:40:59.542Z,11.10
2017-12-31T16:43:27.103Z,11.10
2017-12-31T16:45:54.653Z,11.20
2017-12-31T16:48:22.403Z,11.10
2017-12-31T16:50:50.722Z,11.00
2017-12-31T16:53:18.298Z,11.00
2017-12-31T16:55:46.055Z,11.00
2017-12-31T16:58:13.612Z,11.00
2017-12-31T17:00:41.934Z,11.00
2017-12-31T17:03:09.742Z,11.00
2017-12-31T17:05:37.282Z,11.00
2017-12-31T17:08:04.832Z,10.90
2017-12-31T17:10:32.560Z,10.90
2017-12-31T17:13:00.103Z,11.00
2017-12-31T17:15:27.871Z,10.90
2017-12-31T17:17:55.498Z,10.90
2017-12-31T17:20:23.050Z,10.90
2017-12-31T17:22:50.594Z,10.90
2017-12-31T17:25:18.416Z,10.90
2017-12-31T17:27:47.468Z,10.90
2017-12-31T17:30:15.072Z,10.90
2017-12-31T17:32:42.654Z,10.90
2017-12-31T17:35:10.191Z,10.90
2017-12-31T17:37:37.736Z,10.90
2017-12-31T17:40:05.343Z,11.00
2017-12-31T17:42:32.890Z,10.90
2017-12-31T17:45:00.441Z,10.90
2017-12-31T17:47:28.791Z,10.80
2017-12-31T17:49:56.886Z,10.80
2017-12-31T17:52:24.451Z,10.80
2017-12-31T17:54:53.128Z,10.70
2017-12-31T17:57:20.675Z,10.70
2017-12-31T17:59:48.244Z,10.70
2017-12-31T18:02:15.829Z,10.60
2017-12-31T18:04:43.417Z,10.60
2017-12-31T18:07:10.959Z,10.60
2017-12-31T18:09:38.583Z,10.60
2017-12-31T18:12:06.124Z,10.70
2017-12-31T18:14:33.671Z,10.70
2017-12-31T18:17:01.262Z,10.60
2017-12-31T18:19:28.859Z,10.60
2017-12-31T18:21:56.779Z,10.60
2017-12-31T18:24:25.142Z,10.50
2017-12-31T18:26:54.193Z,10.40
2017-12-31T18:29:21.762Z,10.40
2017-12-31T18:31:49.352Z,10.40
2017-12-31T18:34:17.936Z,10.40
2017-12-31T18:36:45.490Z,10.40
2017-12-31T18:39:13.302Z,10.40
2017-12-31T18:41:40.845Z,10.40
2017-12-31T18:44:08.391Z,10.50
2017-12-31T18:46:36.753Z,10.50
2017-12-31T18:49:04.304Z,10.40
2017-12-31T18:51:31.842Z,10.40
2017-12-31T18:53:59.801Z,10.40
2017-12-31T18:56:27.717Z,10.40
2017-12-31T18:58:55.573Z,10.40
2017-12-31T19:01:24.010Z,10.50
2017-12-31T19:03:51.542Z,10.40
2017-12-31T19:06:19.074Z,10.50
2017-12-31T19:08:46.791Z,10.40
2017-12-31T19:11:14.349Z,10.40
2017-12-31T19:13:41.890Z,10.40
2017-12-31T19:16:09.696Z,10.40
2017-12-31T19:18:37.225Z,10.40
2017-12-31T19:21:04.798Z,10.40
2017-12-31T19:23:32.435Z,10.40
2017-12-31T19:25:59.975Z,10.40
2017-12-31T19:28:28.484Z,10.30
2017-12-31T19:30:56.425Z,10.30
2017-12-31T19:33:24.286Z,10.30
2017-12-31T19:35:52.019Z,10.10
2017-12-31T19:38:19.642Z,10.30
2017-12-31T19:40:47.178Z,10.20
2017-12-31T19:43:14.728Z,10.20
2017-12-31T19:45:43.168Z,10.20
2017-12-31T19:48:10.706Z,10.10
2017-12-31T19:50:38.246Z,10.10
2017-12-31T19:53:05.976Z,10.10
2017-12-31T19:55:33.527Z,10.10
2017-12-31T19:58:01.062Z,10.00
2017-12-31T20:00:28.786Z,10.00
2017-12-31T20:02:56.320Z,10.00
2017-12-31T20:05:24.629Z,10.00
2017-12-31T20:07:52.211Z,10.00
2017-12-31T20:10:19.753Z,10.00
2017-12-31T20:12:48.046Z,10.00
2017-12-31T20:15:15.966Z,10.00
2017-12-31T20:17:44.053Z,10.00
2017-12-31T20:20:12.122Z,10.00
2017-12-31T20:22:40.118Z,10.00
2017-12-31T20:25:09.097Z,10.00
2017-12-31T20:27:36.883Z,10.00
2017-12-31T20:30:04.657Z,10.00
2017-12-31T20:32:32.669Z,10.00
2017-12-31T20:35:01.611Z,9.90
2017-12-31T20:37:29.850Z,9.90
2017-12-31T20:39:58.007Z,9.90
2017-12-31T20:42:26.722Z,9.90
2017-12-31T20:44:54.756Z,9.80
2017-12-31T20:47:23.355Z,9.80
2017-12-31T20:49:51.949Z,9.80
2017-12-31T20:52:20.511Z,9.80
2017-12-31T20:54:48.369Z,9.80
2017-12-31T20:57:17.070Z,9.80
2017-12-31T20:59:44.831Z,9.80
2017-12-31T21:02:12.458Z,9.80
2017-12-31T21:04:40.179Z,9.80
2017-12-31T21:07:08.283Z,9.80
2017-12-31T21:09:38.367Z,9.80
2017-12-31T21:12:06.251Z,9.80
2017-12-31T21:14:34.688Z,9.80
2017-12-31T21:17:03.250Z,9.80
2017-12-31T21:19:31.233Z,9.70
2017-12-31T21:21:59.181Z,9.70
2017-12-31T21:24:26.806Z,9.70
2017-12-31T21:26:54.749Z,9.70
2017-12-31T21:29:22.824Z,9.70
2017-12-31T21:31:51.729Z,9.70
2017-12-31T21:34:19.437Z,9.70
2017-12-31T21:36:47.032Z,9.70
2017-12-31T21:39:14.570Z,9.70
2017-12-31T21:41:42.105Z,9.60
2017-12-31T21:44:09.937Z,9.60
2017-12-31T21:46:37.486Z,9.60
2017-12-31T21:49:05.025Z,9.60
2017-12-31T21:51:33.373Z,9.50
2017-12-31T21:54:00.914Z,9.50
2017-12-31T21:56:28.463Z,9.50
2017-12-31T21:58:56.794Z,9.50
2017-12-31T22:01:24.337Z,9.50
2017-12-31T22:03:52.639Z,9.50
2017-12-31T22:06:20.245Z,9.40
2017-12-31T22:08:47.779Z,9.40
2017-12-31T22:11:15.306Z,9.40
2017-12-31T22:13:43.059Z,9.40
2017-12-31T22:16:10.602Z,9.40
2017-12-31T22:18:38.136Z,9.30
2017-12-31T22:21:06.483Z,9.30
2017-12-31T22:23:34.035Z,9.30
2017-12-31T22:26:01.570Z,9.20
2017-12-31T22:28:29.927Z,9.20
2017-12-31T22:30:57.466Z,9.10
2017-12-31T22:33:24.995Z,9.20
2017-12-31T22:35:52.570Z,9.10
2017-12-31T22:38:20.874Z,9.10
2017-12-31T22:40:49.179Z,9.10
2017-12-31T22:43:16.766Z,9.10
2017-12-31T22:45:44.304Z,9.10
2017-12-31T22:48:12.603Z,9.10
2017-12-31T22:50:40.179Z,9.10
2017-12-31T22:53:07.755Z,9.10
2017-12-31T22:55:36.214Z,9.10
2017-12-31T22:58:04.670Z,9.10
2017-12-31T23:00:32.203Z,9.10
2017-12-31T23:02:59.802Z,9.10
2017-12-31T23:05:27.491Z,9.10
2017-12-31T23:07:55.087Z,9.10
2017-12-31T23:10:23.412Z,9.00
2017-12-31T23:12:51.190Z,9.00
2017-12-31T23:15:18.750Z,9.00
2017-12-31T23:17:47.056Z,9.00
2017-12-31T23:20:14.634Z,9.00
2017-12-31T23:22:42.194Z,9.00
2017-12-31T23:25:09.805Z,9.00
2017-12-31T23:27:37.672Z,8.90
2017-12-31T23:30:05.212Z,9.00
2017-12-31T23:32:32.786Z,9.00
2017-12-31T23:35:00.429Z,8.90
2017-12-31T23:37:28.731Z,9.00
2017-12-31T23:39:57.240Z,8.90
2017-12-31T23:42:24.855Z,9.00
2017-12-31T23:44:52.407Z,9.00
2017-12-31T23:47:19.940Z,9.00
2017-12-31T23:49:48.309Z,9.00
2017-12-31T23:52:15.870Z,9.00
2017-12-31T23:54:44.178Z,9.00
2017-12-31T23:57:12.717Z,8.90
2017-12-31T23:59:40.292Z,8.90
